createdAt,value
2023-05-05T00:00:04.862Z,991.3594
2023-05-05T00:01:01.830Z,991.2886
2023-05-05T00:03:01.982Z,991.3886
2023-05-05T00:05:02.551Z,991.3247
2023-05-05T00:06:01.619Z,991.4604
2023-05-05T00:07:01.996Z,991.2824
2023-05-05T00:08:03.127Z,991.2755
2023-05-05T00:09:03.663Z,991.2832
2023-05-05T00:10:01.851Z,991.2195
2023-05-05T00:11:03.685Z,991.1635
2023-05-05T00:12:01.513Z,991.2214
2023-05-05T00:13:02.037Z,991.2359
2023-05-05T00:14:01.528Z,991.3212
2023-05-05T00:15:02.625Z,991.2576
2023-05-05T00:16:03.341Z,991.2927
2023-05-05T00:17:03.991Z,991.0649
2023-05-05T00:18:01.868Z,991.1644
2023-05-05T00:19:02.151Z,991.1151
2023-05-05T00:20:01.895Z,991.1512
2023-05-05T00:21:02.362Z,991.3222
2023-05-05T00:22:01.825Z,991.2514
2023-05-05T00:23:01.705Z,991.1659
2023-05-05T00:24:02.145Z,991.0804
2023-05-05T00:25:02.667Z,991.102
2023-05-05T00:26:03.988Z,991.0451
2023-05-05T00:27:01.747Z,991.0166
2023-05-05T00:28:02.347Z,991.2013
2023-05-05T00:29:01.649Z,991.2013
2023-05-05T00:30:02.882Z,991.0018
2023-05-05T00:31:01.884Z,990.9596
2023-05-05T00:32:02.316Z,991.0311
2023-05-05T00:33:02.052Z,991.3948
2023-05-05T00:34:02.156Z,990.9613
2023-05-05T00:35:02.359Z,991.1099
2023-05-05T00:36:01.366Z,991.2462
2023-05-05T00:37:03.506Z,991.0252
2023-05-05T00:38:02.310Z,991.1099
2023-05-05T00:39:03.424Z,991.2462
2023-05-05T00:40:02.501Z,991.1755
2023-05-05T00:41:03.681Z,991.0399
2023-05-05T00:42:01.424Z,991.2816
2023-05-05T00:43:01.907Z,991.1401
2023-05-05T00:44:01.423Z,991.0976
2023-05-05T00:45:02.523Z,991.1052
2023-05-05T00:46:01.564Z,991.0839
2023-05-05T00:47:03.601Z,991.2477
2023-05-05T00:48:01.584Z,991.0483
2023-05-05T00:49:01.932Z,991.1563
2023-05-05T00:50:01.595Z,991.284
2023-05-05T00:51:01.822Z,991.1143
2023-05-05T00:52:03.048Z,991.1278
2023-05-05T00:53:01.846Z,991.0137
2023-05-05T00:54:02.327Z,990.9933
2023-05-05T00:55:02.603Z,991.1926
2023-05-05T00:56:03.096Z,991.1644
2023-05-05T00:57:01.847Z,990.9079
2023-05-05T00:58:01.447Z,991.1644
2023-05-05T00:59:01.838Z,990.9305
2023-05-05T01:00:01.721Z,990.9452
2023-05-05T01:01:01.844Z,990.9806
2023-05-05T01:02:02.369Z,990.9452
2023-05-05T01:03:04.562Z,990.9315
2023-05-05T01:04:02.029Z,990.9605
2023-05-05T01:05:02.144Z,990.8329
2023-05-05T01:06:02.245Z,990.826
2023-05-05T01:07:01.686Z,990.869
2023-05-05T01:08:02.172Z,990.9261
2023-05-05T01:09:01.720Z,990.8761
2023-05-05T01:10:18.304Z,990.8908
2023-05-05T01:11:03.440Z,990.9193
2023-05-05T01:12:03.999Z,991.0253
2023-05-05T01:13:03.805Z,990.933
2023-05-05T01:14:03.083Z,990.8616
2023-05-05T01:15:02.762Z,990.8682
2023-05-05T01:16:01.582Z,990.9546
2023-05-05T01:17:02.080Z,990.8339
2023-05-05T01:18:01.579Z,990.9193
2023-05-05T01:19:03.796Z,991.0047
2023-05-05T01:20:02.337Z,990.8623
2023-05-05T01:21:02.330Z,990.7503
2023-05-05T01:22:01.772Z,990.9348
2023-05-05T01:23:02.337Z,990.6718
2023-05-05T01:24:01.855Z,990.8562
2023-05-05T01:25:02.218Z,990.6934
2023-05-05T01:26:02.178Z,990.7287
2023-05-05T01:27:03.439Z,990.7571
2023-05-05T01:28:01.460Z,990.7503
2023-05-05T01:29:01.999Z,990.8003
2023-05-05T01:30:02.632Z,990.6941
2023-05-05T01:31:03.058Z,990.8865
2023-05-05T01:32:01.825Z,990.7726
2023-05-05T01:33:02.242Z,990.7234
2023-05-05T01:34:01.780Z,990.81
2023-05-05T01:35:02.178Z,990.7744
2023-05-05T01:36:03.697Z,990.8953
2023-05-05T01:37:03.154Z,990.7747
2023-05-05T01:38:01.831Z,990.7038
2023-05-05T01:39:03.026Z,990.6256
2023-05-05T01:40:03.558Z,990.9454
2023-05-05T01:41:04.032Z,990.7394
2023-05-05T01:42:01.758Z,990.7323
2023-05-05T01:43:02.362Z,990.7188
2023-05-05T01:44:03.369Z,990.6754
2023-05-05T01:45:03.840Z,990.7323
2023-05-05T01:46:01.870Z,990.7826
2023-05-05T01:47:03.085Z,990.8108
2023-05-05T01:48:01.894Z,990.6619
2023-05-05T01:49:02.310Z,990.811
2023-05-05T01:50:01.806Z,990.8895
2023-05-05T01:51:02.244Z,990.8118
2023-05-05T01:52:01.755Z,990.6127
2023-05-05T01:53:02.249Z,990.8118
2023-05-05T01:54:03.438Z,990.9687
2023-05-05T01:55:03.216Z,990.8204
2023-05-05T01:56:01.828Z,990.9126
2023-05-05T01:57:02.317Z,990.8204
2023-05-05T01:58:01.765Z,990.8565
2023-05-05T01:59:02.220Z,990.7712
2023-05-05T02:00:02.481Z,990.8214
2023-05-05T02:01:03.974Z,990.8773
2023-05-05T02:02:01.867Z,990.8489
2023-05-05T02:03:03.989Z,990.7996
2023-05-05T02:04:01.668Z,990.8143
2023-05-05T02:06:04.015Z,990.8996
2023-05-05T02:07:01.513Z,990.9859
2023-05-05T02:08:02.002Z,990.9859
2023-05-05T02:09:01.477Z,991.121
2023-05-05T02:10:02.265Z,990.8143
2023-05-05T02:11:01.449Z,990.778
2023-05-05T02:12:02.078Z,990.8204
2023-05-05T02:13:01.537Z,991.0055
2023-05-05T02:14:01.981Z,990.778
2023-05-05T02:15:02.380Z,990.9687
2023-05-05T02:16:02.140Z,990.9687
2023-05-05T02:17:01.615Z,990.778
2023-05-05T02:18:03.765Z,990.8214
2023-05-05T02:19:03.225Z,990.793
2023-05-05T02:20:02.447Z,990.8996
2023-05-05T02:21:01.599Z,990.9859
2023-05-05T02:22:02.078Z,990.8016
2023-05-05T02:23:01.511Z,990.9153
2023-05-05T02:24:02.018Z,990.8301
2023-05-05T02:25:02.237Z,990.873
2023-05-05T02:26:03.841Z,991.0298
2023-05-05T02:27:03.303Z,990.8024
2023-05-05T02:28:02.075Z,990.7955
2023-05-05T02:29:01.607Z,990.8377
2023-05-05T02:30:03.837Z,990.9367
2023-05-05T02:31:01.677Z,990.9651
2023-05-05T02:32:02.068Z,990.8945
2023-05-05T02:33:01.627Z,990.724
2023-05-05T02:34:02.163Z,990.8024
2023-05-05T02:35:02.683Z,990.9161
2023-05-05T02:36:03.993Z,990.7534
2023-05-05T02:37:01.843Z,990.7323
2023-05-05T02:38:03.801Z,990.7039
2023-05-05T02:39:01.531Z,990.8897
2023-05-05T02:40:03.716Z,990.7836
2023-05-05T02:41:01.537Z,990.6699
2023-05-05T02:42:02.096Z,990.6984
2023-05-05T02:43:01.493Z,990.7768
2023-05-05T02:44:03.597Z,990.8189
2023-05-05T02:45:02.193Z,990.8405
2023-05-05T02:46:02.048Z,990.812
2023-05-05T02:47:01.456Z,990.7484
2023-05-05T02:48:03.716Z,990.6847
2023-05-05T02:49:01.466Z,990.7131
2023-05-05T02:50:02.762Z,990.7983
2023-05-05T02:51:01.399Z,990.6994
2023-05-05T02:52:03.523Z,990.6776
2023-05-05T02:53:01.360Z,990.7912
2023-05-05T02:54:03.536Z,990.6925
2023-05-05T02:55:02.160Z,990.6365
2023-05-05T02:56:01.925Z,990.7217
2023-05-05T02:57:03.042Z,990.8354
2023-05-05T02:58:01.836Z,990.6581
2023-05-05T02:59:03.041Z,990.6659
2023-05-05T03:00:02.694Z,990.758
2023-05-05T03:01:02.973Z,990.7364
2023-05-05T03:02:02.755Z,990.7501
2023-05-05T03:03:02.747Z,990.807
2023-05-05T03:04:02.129Z,990.807
2023-05-05T03:05:02.263Z,990.707
2023-05-05T03:06:02.141Z,990.8422
2023-05-05T03:07:01.525Z,990.6933
2023-05-05T03:08:01.980Z,990.7933
2023-05-05T03:09:01.526Z,990.596
2023-05-05T03:10:02.045Z,990.6949
2023-05-05T03:11:01.501Z,990.8085
2023-05-05T03:12:03.597Z,990.8156
2023-05-05T03:13:01.666Z,990.7164
2023-05-05T03:14:01.903Z,990.5391
2023-05-05T03:15:02.276Z,990.7167
2023-05-05T03:16:03.730Z,990.6315
2023-05-05T03:17:01.754Z,990.5391
2023-05-05T03:18:02.027Z,990.5107
2023-05-05T03:19:01.610Z,990.6812
2023-05-05T03:20:04.394Z,990.5675
2023-05-05T03:21:01.856Z,990.5675
2023-05-05T03:22:03.050Z,990.6451
2023-05-05T03:23:01.839Z,990.596
2023-05-05T03:24:01.360Z,990.5031
2023-05-05T03:25:02.648Z,990.6528
2023-05-05T03:26:01.386Z,990.5107
2023-05-05T03:27:01.866Z,990.4055
2023-05-05T03:28:01.376Z,990.5391
2023-05-05T03:29:03.534Z,990.6812
2023-05-05T03:30:03.736Z,990.5833
2023-05-05T03:31:02.357Z,990.4981
2023-05-05T03:32:01.803Z,990.683
2023-05-05T03:33:02.355Z,990.738
2023-05-05T03:34:01.768Z,990.5107
2023-05-05T03:35:02.166Z,990.6812
2023-05-05T03:36:02.083Z,990.6812
2023-05-05T03:37:01.597Z,990.5546
2023-05-05T03:38:02.069Z,990.6401
2023-05-05T03:39:01.598Z,990.5978
2023-05-05T03:40:02.699Z,990.556
2023-05-05T03:41:01.707Z,990.6411
2023-05-05T03:42:02.240Z,990.4992
2023-05-05T03:43:01.757Z,990.4992
2023-05-05T03:44:02.235Z,990.967
2023-05-05T03:45:02.480Z,990.5704
2023-05-05T03:46:01.505Z,990.6977
2023-05-05T03:47:01.784Z,990.4921
2023-05-05T03:48:02.310Z,990.8683
2023-05-05T03:49:01.864Z,990.8683
2023-05-05T03:50:03.101Z,990.8612
2023-05-05T03:51:01.686Z,990.6125
2023-05-05T03:52:02.219Z,990.826
2023-05-05T03:53:03.347Z,990.683
2023-05-05T03:54:02.070Z,990.5686
2023-05-05T03:55:02.406Z,990.5625
2023-05-05T03:56:02.182Z,990.4989
2023-05-05T03:57:01.607Z,990.7626
2023-05-05T03:58:02.100Z,990.7626
2023-05-05T03:59:03.232Z,990.7626
2023-05-05T04:00:02.047Z,990.6921
2023-05-05T04:01:01.513Z,990.6782
2023-05-05T04:02:03.740Z,990.4026
2023-05-05T04:03:01.560Z,990.6556
2023-05-05T04:04:01.979Z,990.8612
2023-05-05T04:05:02.585Z,990.6921
2023-05-05T04:06:02.018Z,990.7626
2023-05-05T04:07:01.534Z,990.4019
2023-05-05T04:08:02.001Z,990.634
2023-05-05T04:09:01.541Z,990.7398
2023-05-05T04:10:02.062Z,990.5978
2023-05-05T04:11:03.217Z,990.5686
2023-05-05T04:12:02.021Z,990.4842
2023-05-05T04:13:01.517Z,990.5978
2023-05-05T04:14:01.929Z,990.7469
2023-05-05T04:15:02.217Z,990.6538
2023-05-05T04:16:02.073Z,990.6399
2023-05-05T04:17:03.127Z,990.5049
2023-05-05T04:18:02.037Z,990.6812
2023-05-05T04:19:03.130Z,990.5391
2023-05-05T04:20:02.227Z,990.6167
2023-05-05T04:21:01.467Z,990.6451
2023-05-05T04:22:02.018Z,990.6451
2023-05-05T04:23:01.362Z,990.7157
2023-05-05T04:24:01.874Z,990.7228
2023-05-05T04:25:02.628Z,990.6228
2023-05-05T04:26:02.026Z,990.7286
2023-05-05T04:27:01.522Z,990.6426
2023-05-05T04:28:02.008Z,990.6491
2023-05-05T04:29:01.617Z,990.6131
2023-05-05T04:30:02.074Z,990.7836
2023-05-05T04:31:01.481Z,990.5994
2023-05-05T04:32:03.586Z,990.6491
2023-05-05T04:33:01.452Z,990.7768
2023-05-05T04:34:01.914Z,990.5563
2023-05-05T04:35:02.273Z,990.5847
2023-05-05T04:36:02.188Z,990.6907
2023-05-05T04:37:01.685Z,990.5771
2023-05-05T04:38:02.174Z,990.6055
2023-05-05T04:39:01.618Z,990.6692
2023-05-05T04:40:02.211Z,990.6613
2023-05-05T04:41:03.442Z,990.6887
2023-05-05T04:42:02.172Z,990.6102
2023-05-05T04:43:01.598Z,990.6879
2023-05-05T04:44:03.756Z,990.8996
2023-05-05T04:45:02.350Z,990.6721
2023-05-05T04:46:02.164Z,990.6793
2023-05-05T04:47:01.772Z,990.4452
2023-05-05T04:48:02.177Z,990.6137
2023-05-05T04:49:03.361Z,990.5205
2023-05-05T04:50:04.845Z,990.6264
2023-05-05T04:51:01.680Z,990.6335
2023-05-05T04:52:02.178Z,990.7038
2023-05-05T04:53:01.688Z,990.746
2023-05-05T04:54:01.863Z,990.6657
2023-05-05T04:55:03.719Z,990.5021
2023-05-05T04:56:02.277Z,990.6786
2023-05-05T04:57:03.449Z,990.8339
2023-05-05T04:58:03.864Z,990.7759
2023-05-05T04:59:01.686Z,990.632
2023-05-05T05:00:02.783Z,990.6663
2023-05-05T05:03:03.116Z,990.5867
2023-05-05T05:04:02.447Z,990.678
2023-05-05T05:05:02.432Z,990.7479
2023-05-05T05:06:01.410Z,990.7965
2023-05-05T05:07:01.867Z,990.6746
2023-05-05T05:08:01.468Z,990.6166
2023-05-05T05:09:03.612Z,990.7227
2023-05-05T05:10:02.360Z,990.6435
2023-05-05T05:11:01.785Z,990.6346
2023-05-05T05:12:02.346Z,990.6198
2023-05-05T05:13:01.795Z,990.6109
2023-05-05T05:14:02.284Z,990.6093
2023-05-05T05:15:02.630Z,990.7216
2023-05-05T05:16:01.611Z,990.6271
2023-05-05T05:17:02.026Z,990.8174
2023-05-05T05:18:01.548Z,990.787
2023-05-05T05:19:03.689Z,990.6071
2023-05-05T05:20:05.434Z,990.5344
2023-05-05T05:21:01.821Z,990.7256
2023-05-05T05:22:02.185Z,990.6172
2023-05-05T05:23:01.618Z,990.5227
2023-05-05T05:24:02.168Z,990.352
2023-05-05T05:25:02.437Z,990.577
2023-05-05T05:26:02.292Z,990.6098
2023-05-05T05:27:01.721Z,990.5429
2023-05-05T05:28:10.098Z,990.6467
2023-05-05T05:29:01.738Z,990.4236
2023-05-05T05:30:02.206Z,990.6264
2023-05-05T05:31:01.622Z,990.6236
2023-05-05T05:32:02.243Z,990.7289
2023-05-05T05:33:01.672Z,990.9202
2023-05-05T05:34:02.106Z,990.6754
2023-05-05T05:35:04.539Z,990.5523
2023-05-05T05:36:01.829Z,990.5
2023-05-05T05:37:02.181Z,990.4921
2023-05-05T05:38:01.797Z,990.3999
2023-05-05T05:39:03.833Z,990.4068
2023-05-05T05:40:02.521Z,990.6107
2023-05-05T05:41:02.164Z,990.4365
2023-05-05T05:42:01.683Z,990.554
2023-05-05T05:43:02.190Z,990.445
2023-05-05T05:44:01.701Z,990.5202
2023-05-05T05:45:02.973Z,990.5048
2023-05-05T05:46:01.747Z,990.5099
2023-05-05T05:47:02.252Z,990.6596
2023-05-05T05:48:01.743Z,990.3223
2023-05-05T05:49:02.255Z,990.5269
2023-05-05T05:50:01.847Z,990.5956
2023-05-05T05:51:02.197Z,990.5221
2023-05-05T05:52:01.686Z,990.701
2023-05-05T05:53:02.155Z,990.5341
2023-05-05T05:54:01.692Z,990.5323
2023-05-05T05:55:04.731Z,990.6465
2023-05-05T05:56:01.691Z,990.5219
2023-05-05T05:57:02.255Z,990.4356
2023-05-05T05:58:01.689Z,990.4334
2023-05-05T05:59:02.240Z,990.4731
2023-05-05T06:00:02.609Z,990.6646
2023-05-05T06:01:03.040Z,990.4985
2023-05-05T06:02:02.012Z,990.5334
2023-05-05T06:03:01.819Z,990.6764
2023-05-05T06:04:02.242Z,990.4249
2023-05-05T06:05:02.630Z,990.574
2023-05-05T06:06:02.372Z,990.5804
2023-05-05T06:07:01.789Z,990.5228
2023-05-05T06:08:03.998Z,990.5366
2023-05-05T06:09:01.788Z,990.5009
2023-05-05T06:10:25.171Z,990.5505
2023-05-05T06:11:01.696Z,990.5863
2023-05-05T06:12:04.006Z,990.6797
2023-05-05T06:13:01.764Z,990.6359
2023-05-05T06:14:02.188Z,990.657
2023-05-05T06:15:02.378Z,990.6261
2023-05-05T06:16:02.354Z,990.5815
2023-05-05T06:17:01.766Z,990.5938
2023-05-05T06:18:02.350Z,990.6635
2023-05-05T06:19:01.723Z,990.6494
2023-05-05T06:20:03.030Z,990.6924
2023-05-05T06:21:01.826Z,990.7851
2023-05-05T06:22:02.281Z,990.6906
2023-05-05T06:23:01.682Z,990.6617
2023-05-05T06:24:02.165Z,990.5813
2023-05-05T06:25:04.305Z,990.6091
2023-05-05T06:26:04.085Z,990.7168
2023-05-05T06:27:01.770Z,990.7227
2023-05-05T06:28:02.258Z,990.7139
2023-05-05T06:29:01.779Z,990.6632
2023-05-05T06:30:02.574Z,990.6332
2023-05-05T06:31:01.923Z,990.8266
2023-05-05T06:32:02.332Z,990.7245
2023-05-05T06:33:01.826Z,990.6587
2023-05-05T06:37:02.092Z,990.7388
2023-05-05T06:38:02.304Z,990.8398
2023-05-05T06:39:03.511Z,990.7081
2023-05-05T06:40:03.025Z,990.6755
2023-05-05T06:41:01.774Z,990.8323
2023-05-05T06:42:03.922Z,990.7499
2023-05-05T06:43:03.356Z,990.6033
2023-05-05T06:44:02.156Z,990.6583
2023-05-05T06:45:02.508Z,990.8155
2023-05-05T06:46:02.260Z,990.6329
2023-05-05T06:47:01.858Z,990.696
2023-05-05T06:48:02.358Z,990.5431
2023-05-05T06:49:03.344Z,990.6773
2023-05-05T06:50:04.798Z,990.5517
2023-05-05T06:51:01.843Z,990.6057
2023-05-05T06:52:02.185Z,990.3799
2023-05-05T06:53:01.748Z,990.7033
2023-05-05T06:54:02.146Z,990.3912
2023-05-05T06:55:02.481Z,990.5082
2023-05-05T06:56:03.945Z,990.4433
2023-05-05T06:57:01.752Z,990.4899
2023-05-05T06:58:02.233Z,990.432
2023-05-05T06:59:01.743Z,990.3636
2023-05-05T07:00:02.945Z,990.3698
2023-05-05T07:01:04.413Z,990.5104
2023-05-05T07:02:04.307Z,990.4155
2023-05-05T07:03:01.665Z,990.5796
2023-05-05T07:04:01.921Z,990.4915
2023-05-05T07:05:02.359Z,990.5349
2023-05-05T07:06:01.991Z,990.3223
2023-05-05T07:07:01.532Z,990.399
2023-05-05T07:08:02.069Z,990.447
2023-05-05T07:09:01.860Z,990.6137
2023-05-05T07:10:02.136Z,990.4832
2023-05-05T07:11:02.240Z,990.5555
2023-05-05T07:12:01.782Z,990.3899
2023-05-05T07:13:02.239Z,990.4883
2023-05-05T07:14:03.359Z,990.3418
2023-05-05T07:15:12.192Z,990.4354
2023-05-05T07:16:03.544Z,990.3833
2023-05-05T07:17:02.377Z,990.5137
2023-05-05T07:18:01.827Z,990.5639
2023-05-05T07:19:02.229Z,990.3892
2023-05-05T07:20:01.695Z,990.4386
2023-05-05T07:21:03.840Z,990.3433
2023-05-05T07:22:01.709Z,990.5382
2023-05-05T07:23:02.176Z,990.5512
2023-05-05T07:24:01.603Z,990.4289
2023-05-05T07:25:04.712Z,990.3341
2023-05-05T07:26:02.000Z,990.427
2023-05-05T07:27:01.538Z,990.427
2023-05-05T07:28:01.997Z,990.3154
2023-05-05T07:29:01.463Z,990.3494
2023-05-05T07:30:02.948Z,990.2611
2023-05-05T07:31:01.369Z,990.5215
2023-05-05T07:32:01.887Z,990.3116
2023-05-05T07:33:01.381Z,990.3035
2023-05-05T07:34:01.883Z,990.3529
2023-05-05T07:35:02.079Z,990.5024
2023-05-05T07:36:02.007Z,990.4929
2023-05-05T07:37:01.430Z,990.4288
2023-05-05T07:38:03.589Z,990.3701
2023-05-05T07:39:03.048Z,990.3715
2023-05-05T07:40:02.070Z,990.4288
2023-05-05T07:41:01.384Z,990.4288
2023-05-05T07:42:01.822Z,990.4199
2023-05-05T07:44:01.856Z,990.309
2023-05-05T07:45:02.913Z,990.3955
2023-05-05T07:46:01.832Z,990.4375
2023-05-05T07:47:03.934Z,990.5427
2023-05-05T07:48:01.771Z,990.4128
2023-05-05T07:49:02.169Z,990.3097
2023-05-05T07:50:01.697Z,990.2209
2023-05-05T07:51:02.201Z,990.3822
2023-05-05T07:52:01.602Z,990.3227
2023-05-05T07:53:13.546Z,990.2934
2023-05-05T07:54:01.642Z,990.3007
2023-05-05T07:55:02.930Z,990.2563
2023-05-05T07:56:01.718Z,990.3286
2023-05-05T07:57:03.900Z,990.3351
2023-05-05T07:58:01.713Z,990.4217
2023-05-05T07:59:02.173Z,990.4491
2023-05-05T08:00:02.280Z,990.3461
2023-05-05T08:01:02.320Z,990.3886
2023-05-05T08:02:01.767Z,990.2697
2023-05-05T08:03:02.381Z,990.21
2023-05-05T08:04:01.775Z,990.2596
2023-05-05T08:05:03.126Z,990.288
2023-05-05T08:06:01.794Z,990.2934
2023-05-05T08:07:04.024Z,990.365
2023-05-05T08:08:01.713Z,990.3701
2023-05-05T08:09:02.205Z,990.2944
2023-05-05T08:10:02.621Z,990.2876
2023-05-05T08:12:01.867Z,990.1825
2023-05-05T08:13:02.339Z,990.5249
2023-05-05T08:14:03.481Z,990.1744
2023-05-05T08:16:04.408Z,990.2725
2023-05-05T08:17:03.429Z,990.2839
2023-05-05T08:18:02.289Z,990.3273
2023-05-05T08:19:01.639Z,990.3115
2023-05-05T08:20:04.048Z,990.245
2023-05-05T08:21:01.659Z,990.4368
2023-05-05T08:22:02.160Z,990.3553
2023-05-05T08:23:01.614Z,990.3319
2023-05-05T08:24:02.078Z,990.3734
2023-05-05T08:25:02.238Z,990.3688
2023-05-05T08:26:02.237Z,990.3646
2023-05-05T08:27:01.674Z,990.3921
2023-05-05T08:28:02.185Z,990.3646
2023-05-05T08:29:01.625Z,990.3364
2023-05-05T08:30:02.990Z,990.2321
2023-05-05T08:31:01.671Z,990.3994
2023-05-05T08:32:02.104Z,990.2345
2023-05-05T08:33:03.315Z,990.1715
2023-05-05T08:34:02.080Z,990.2054
2023-05-05T08:35:02.378Z,990.2026
2023-05-05T08:36:03.775Z,990.1987
2023-05-05T08:37:01.596Z,990.1296
2023-05-05T08:38:03.760Z,990.1064
2023-05-05T08:39:03.188Z,990.1492
2023-05-05T08:40:02.326Z,990.2375
2023-05-05T08:41:01.534Z,990.2537
2023-05-05T08:42:02.068Z,990.0617
2023-05-05T08:43:01.521Z,990.1611
2023-05-05T08:44:02.005Z,990.1126
2023-05-05T08:45:02.356Z,990.0942
2023-05-05T08:46:03.685Z,990.1657
2023-05-05T08:47:01.736Z,990.1382
2023-05-05T08:48:02.074Z,990.1452
2023-05-05T08:49:01.437Z,990.179
2023-05-05T08:50:02.596Z,990.2675
2023-05-05T08:51:04.006Z,990.1262
2023-05-05T08:52:02.026Z,990.0306
2023-05-05T08:53:01.467Z,990.1314
2023-05-05T08:54:01.918Z,990.093
2023-05-05T08:55:02.330Z,990.2687
2023-05-05T08:56:02.096Z,990.0581
2023-05-05T08:57:01.543Z,990.0788
2023-05-05T08:58:02.005Z,990.1072
2023-05-05T08:59:01.553Z,990.1712
2023-05-05T09:00:02.106Z,990.0817
2023-05-05T09:01:03.383Z,990.0586
2023-05-05T09:02:03.031Z,990.1257
2023-05-05T09:03:02.848Z,990.0248
2023-05-05T09:04:03.177Z,990.026
2023-05-05T09:05:02.773Z,990.0689
2023-05-05T09:06:01.822Z,990.0521
2023-05-05T09:08:01.875Z,990.1714
2023-05-05T09:09:03.044Z,990.097
2023-05-05T09:10:02.758Z,990.2064
2023-05-05T09:11:01.642Z,990.0362
2023-05-05T09:12:02.187Z,990.0259
2023-05-05T09:13:01.710Z,990.2036
2023-05-05T09:14:02.156Z,990.172
2023-05-05T09:15:04.404Z,989.9651
2023-05-05T09:16:03.646Z,990.018
2023-05-05T09:17:03.204Z,990.1462
2023-05-05T09:18:03.756Z,989.9802
2023-05-05T09:19:01.606Z,989.9891
2023-05-05T09:20:04.898Z,990.1123
2023-05-05T09:21:03.533Z,990.147
2023-05-05T09:22:01.383Z,990.0279
2023-05-05T09:23:01.866Z,990.087
2023-05-05T09:24:07.817Z,989.9813
2023-05-05T09:25:02.667Z,990.0833
2023-05-05T09:26:04.034Z,990.0688
2023-05-05T09:27:01.762Z,990.0759
2023-05-05T09:28:02.257Z,990.0242
2023-05-05T09:29:01.690Z,990.1465
2023-05-05T09:30:02.194Z,990.0586
2023-05-05T09:31:01.732Z,990.1962
2023-05-05T09:32:02.143Z,990.0109
2023-05-05T09:33:01.646Z,990.0279
2023-05-05T09:34:02.088Z,989.9995
2023-05-05T09:35:02.169Z,990.1777
2023-05-05T09:36:02.072Z,989.9595
2023-05-05T09:37:01.699Z,990.0706
2023-05-05T09:38:02.091Z,990.1177
2023-05-05T09:39:01.513Z,990.045
2023-05-05T09:40:02.039Z,990.053
2023-05-05T09:41:01.650Z,989.922
2023-05-05T09:42:01.991Z,990.0388
2023-05-05T09:43:01.458Z,989.9758
2023-05-05T09:44:01.909Z,990.0357
2023-05-05T09:45:02.140Z,990.0326
2023-05-05T09:46:02.130Z,990.053
2023-05-05T09:47:01.519Z,989.9633
2023-05-05T09:48:02.057Z,990.0857
2023-05-05T09:49:01.450Z,989.8403
2023-05-05T09:50:02.779Z,989.9583
2023-05-05T09:51:01.516Z,989.9319
2023-05-05T09:52:03.666Z,989.9207
2023-05-05T09:53:03.115Z,989.8139
2023-05-05T09:54:03.591Z,989.8925
2023-05-05T09:55:02.188Z,989.8973
2023-05-05T09:56:01.973Z,989.8518
2023-05-05T09:57:03.222Z,989.9688
2023-05-05T09:58:01.936Z,989.9688
2023-05-05T09:59:01.365Z,989.8935
2023-05-05T10:00:02.944Z,989.9088
2023-05-05T10:01:01.468Z,989.8323
2023-05-05T10:02:03.654Z,989.8627
2023-05-05T10:03:01.462Z,989.8914
2023-05-05T10:04:03.535Z,989.9687
2023-05-05T10:05:02.551Z,989.8773
2023-05-05T10:06:01.950Z,989.8398
2023-05-05T10:07:01.481Z,989.914
2023-05-05T10:08:01.919Z,989.7723
2023-05-05T10:09:01.372Z,989.9692
2023-05-05T10:10:02.246Z,989.7886
2023-05-05T10:11:01.445Z,989.8846
2023-05-05T10:12:01.945Z,989.8671
2023-05-05T10:13:01.447Z,989.8458
2023-05-05T10:14:01.846Z,989.8866
2023-05-05T10:15:02.335Z,989.746
2023-05-05T10:16:02.001Z,989.7303
2023-05-05T10:17:01.474Z,989.8253
2023-05-05T10:18:08.250Z,989.6577
2023-05-05T10:19:01.352Z,989.6794
2023-05-05T10:20:04.111Z,989.6815
2023-05-05T10:21:01.525Z,989.8274
2023-05-05T10:22:02.102Z,989.8171
2023-05-05T10:23:01.510Z,989.679
2023-05-05T10:24:03.688Z,989.802
2023-05-05T10:25:02.141Z,989.8182
2023-05-05T10:26:02.015Z,989.7019
2023-05-05T10:27:01.551Z,989.7019
2023-05-05T10:28:02.006Z,989.6006
2023-05-05T10:29:01.456Z,989.5935
2023-05-05T10:30:02.107Z,989.5698
2023-05-05T10:31:07.832Z,989.6485
2023-05-05T10:32:02.706Z,989.6189
2023-05-05T10:33:22.280Z,989.6506
2023-05-05T10:34:01.853Z,989.6494
2023-05-05T10:35:03.026Z,989.5852
2023-05-05T10:36:01.768Z,989.5589
2023-05-05T10:37:02.185Z,989.5805
2023-05-05T10:38:01.607Z,989.6773
2023-05-05T10:39:03.744Z,989.6506
2023-05-05T10:40:02.377Z,989.6057
2023-05-05T10:41:03.760Z,989.519
2023-05-05T10:42:01.532Z,989.519
2023-05-05T10:43:01.989Z,989.5681
2023-05-05T10:44:04.462Z,989.5773
2023-05-05T10:45:02.756Z,989.5059
2023-05-05T10:46:01.719Z,989.5213
2023-05-05T10:47:02.269Z,989.621
2023-05-05T10:48:01.802Z,989.5676
2023-05-05T10:49:02.169Z,989.5229
2023-05-05T10:50:02.445Z,989.4177
2023-05-05T10:51:02.165Z,989.4912
2023-05-05T10:52:03.418Z,989.5208
2023-05-05T10:53:02.255Z,989.3554
2023-05-05T10:54:01.712Z,989.4218
2023-05-05T10:55:01.937Z,989.5628
2023-05-05T10:56:01.839Z,989.4137
2023-05-05T10:57:01.291Z,989.323
2023-05-05T10:58:01.856Z,989.4823
2023-05-05T10:59:02.314Z,989.4383
2023-05-05T11:00:01.783Z,989.3853
2023-05-05T11:01:02.276Z,989.3874
2023-05-05T11:02:03.525Z,989.6282
2023-05-05T11:03:04.013Z,989.569
2023-05-05T11:04:03.587Z,989.5649
2023-05-05T11:05:02.942Z,989.3883
2023-05-05T11:06:01.784Z,989.3997
2023-05-05T11:07:02.160Z,989.3938
2023-05-05T11:08:03.281Z,989.3865
2023-05-05T11:09:02.064Z,989.2695
2023-05-05T11:10:02.012Z,989.2849
2023-05-05T11:11:02.073Z,989.246
2023-05-05T11:12:03.270Z,989.2836
2023-05-05T11:13:02.121Z,989.2695
2023-05-05T11:14:01.554Z,989.2959
2023-05-05T11:15:02.991Z,989.405
2023-05-05T11:16:03.292Z,989.2491
2023-05-05T11:17:02.177Z,989.2124
2023-05-05T11:18:04.875Z,989.4149
2023-05-05T11:19:02.092Z,989.2842
2023-05-05T11:20:04.371Z,989.2869
2023-05-05T11:21:01.352Z,989.2126
2023-05-05T11:22:01.849Z,989.24
2023-05-05T11:23:01.388Z,989.1512
2023-05-05T11:24:01.860Z,989.2003
2023-05-05T11:25:02.612Z,989.0557
2023-05-05T11:26:01.993Z,989.1198
2023-05-05T11:27:01.620Z,989.1308
2023-05-05T11:28:02.000Z,989.1592
2023-05-05T11:29:03.205Z,989.1277
2023-05-05T11:30:04.293Z,989.1175
2023-05-05T11:31:01.891Z,989.2628
2023-05-05T11:32:03.118Z,989.1526
2023-05-05T11:33:01.894Z,989.0773
2023-05-05T11:34:01.358Z,989.0618
2023-05-05T11:35:02.688Z,989.1127
2023-05-05T11:36:03.451Z,989.0473
2023-05-05T11:37:02.088Z,989.0618
2023-05-05T11:38:01.588Z,989.0863
2023-05-05T11:39:02.090Z,989.1159
2023-05-05T11:40:01.720Z,989.2035
2023-05-05T11:41:02.413Z,989.1782
2023-05-05T11:42:06.560Z,989.1146
2023-05-05T11:43:06.403Z,989.1123
2023-05-05T11:44:02.067Z,989.0592
2023-05-05T11:45:02.263Z,988.9442
2023-05-05T11:46:02.233Z,988.9574
2023-05-05T11:47:01.621Z,989.0544
2023-05-05T11:48:02.116Z,989.0747
2023-05-05T11:49:01.606Z,988.9932
2023-05-05T11:50:02.128Z,989.0229
2023-05-05T11:51:01.602Z,988.9104
2023-05-05T11:52:02.224Z,989.0277
2023-05-05T11:53:03.295Z,988.9471
2023-05-05T11:54:02.104Z,988.9871
2023-05-05T11:55:02.374Z,988.9645
2023-05-05T11:56:02.252Z,989.029
2023-05-05T11:57:01.631Z,988.9339
2023-05-05T11:58:03.773Z,989.0216